createdAt,value
2023-02-28T00:00:31.560Z,24.30
2023-02-28T00:01:50.700Z,27.30
2023-02-28T00:02:53.657Z,25.30
2023-02-28T00:03:57.117Z,24.50
2023-02-28T00:05:02.438Z,28.30
2023-02-28T00:06:07.417Z,28.70
2023-02-28T00:07:10.909Z,27.70
2023-02-28T00:08:14.297Z,32.20
2023-02-28T00:09:17.163Z,24.80
2023-02-28T00:10:26.130Z,33.30
2023-02-28T00:11:29.289Z,33.10
2023-02-28T00:12:32.397Z,27.40
2023-02-28T00:13:38.544Z,29.80
2023-02-28T00:14:41.423Z,25.90
2023-02-28T00:15:45.179Z,26.40
2023-02-28T00:16:48.066Z,29.80
2023-02-28T00:17:51.483Z,29.30
2023-02-28T00:18:54.553Z,31.30
2023-02-28T00:19:57.986Z,28.00
2023-02-28T00:21:00.935Z,29.30
2023-02-28T00:22:04.392Z,31.20
2023-02-28T00:23:07.292Z,28.00
2023-02-28T00:24:10.165Z,27.60
2023-02-28T00:25:16.378Z,30.80
2023-02-28T00:26:21.709Z,27.80
2023-02-28T00:27:25.961Z,27.80
2023-02-28T00:28:28.987Z,25.70
2023-02-28T00:29:31.852Z,31.20
2023-02-28T00:30:34.786Z,25.80
2023-02-28T00:31:41.394Z,25.50
2023-02-28T00:32:45.104Z,26.90
2023-02-28T00:33:47.975Z,30.50
2023-02-28T00:34:51.247Z,28.90
2023-02-28T00:36:02.902Z,23.80
2023-02-28T00:37:07.478Z,27.80
2023-02-28T00:38:10.418Z,27.40
2023-02-28T00:39:13.269Z,30.40
2023-02-28T00:40:16.201Z,26.00
2023-02-28T00:41:19.381Z,32.20
2023-02-28T00:42:24.489Z,30.20
2023-02-28T00:43:27.382Z,32.10
2023-02-28T00:44:31.330Z,32.80
2023-02-28T00:45:34.301Z,30.10
2023-02-28T00:46:37.120Z,29.20
2023-02-28T00:47:40.113Z,30.40
2023-02-28T00:48:43.375Z,31.50
2023-02-28T00:49:46.184Z,30.50
2023-02-28T00:50:52.190Z,32.10
2023-02-28T00:51:56.600Z,29.70
2023-02-28T00:52:59.523Z,26.50
2023-02-28T00:54:03.433Z,28.20
2023-02-28T00:55:06.568Z,27.40
2023-02-28T00:56:09.901Z,27.20
2023-02-28T00:57:12.751Z,29.20
2023-02-28T00:58:16.565Z,28.10
2023-02-28T00:59:19.620Z,28.20
2023-02-28T01:00:22.685Z,31.10
2023-02-28T01:01:27.341Z,31.80
2023-02-28T01:02:30.413Z,28.60
2023-02-28T01:03:33.490Z,32.00
2023-02-28T01:04:36.548Z,28.30
2023-02-28T01:05:39.457Z,30.30
2023-02-28T01:06:43.008Z,26.90
2023-02-28T01:07:47.112Z,26.70
2023-02-28T01:08:50.470Z,29.10
2023-02-28T01:09:53.440Z,29.50
2023-02-28T01:10:56.751Z,26.00
2023-02-28T01:11:59.733Z,26.10
2023-02-28T01:13:02.636Z,28.70
2023-02-28T01:14:06.081Z,31.50
2023-02-28T01:15:12.389Z,31.50
2023-02-28T01:16:20.524Z,28.80
2023-02-28T01:17:23.461Z,29.20
2023-02-28T01:18:26.886Z,29.00
2023-02-28T01:19:29.940Z,31.30
2023-02-28T01:20:32.851Z,33.10
2023-02-28T01:21:36.732Z,30.10
2023-02-28T01:22:39.621Z,31.80
2023-02-28T01:23:44.817Z,28.40
2023-02-28T01:24:48.449Z,31.30
2023-02-28T01:25:52.533Z,28.20
2023-02-28T01:26:55.417Z,31.40
2023-02-28T01:27:58.386Z,29.00
2023-02-28T01:29:04.151Z,33.00
2023-02-28T01:30:08.990Z,32.60
2023-02-28T01:31:13.330Z,27.60
2023-02-28T01:32:16.273Z,29.40
2023-02-28T01:33:19.292Z,27.70
2023-02-28T01:34:22.212Z,29.20
2023-02-28T01:35:25.117Z,24.90
2023-02-28T01:36:27.971Z,28.50
2023-02-28T01:37:32.295Z,27.90
2023-02-28T01:38:35.418Z,31.10
2023-02-28T01:39:38.327Z,27.10
2023-02-28T01:40:41.199Z,27.30
2023-02-28T01:41:44.273Z,30.80
2023-02-28T01:42:47.102Z,27.90
2023-02-28T01:43:49.951Z,30.60
2023-02-28T01:44:58.063Z,32.30
2023-02-28T01:46:01.603Z,28.60
2023-02-28T01:47:04.575Z,27.70
2023-02-28T01:48:10.141Z,31.20
2023-02-28T01:49:18.110Z,29.60
2023-02-28T01:50:26.497Z,31.20
2023-02-28T01:51:41.266Z,30.40
2023-02-28T01:52:46.709Z,27.70
2023-02-28T01:54:02.683Z,26.50
2023-02-28T01:55:07.987Z,26.40
2023-02-28T01:56:21.647Z,29.50
2023-02-28T01:57:38.578Z,24.80
2023-02-28T01:58:41.769Z,30.30
2023-02-28T02:00:08.540Z,26.50
2023-02-28T02:01:22.464Z,26.80
2023-02-28T02:03:32.228Z,24.40
2023-02-28T02:05:03.633Z,28.40
2023-02-28T02:06:06.584Z,23.70
2023-02-28T02:07:10.835Z,26.60
2023-02-28T02:08:17.255Z,27.40
2023-02-28T02:09:20.158Z,24.40
2023-02-28T02:10:33.519Z,27.70
2023-02-28T02:11:37.591Z,29.00
2023-02-28T02:12:55.747Z,30.20
2023-02-28T02:14:43.377Z,26.60
2023-02-28T02:16:20.135Z,30.90
2023-02-28T02:17:35.513Z,28.20
2023-02-28T02:18:47.451Z,27.20
2023-02-28T02:20:11.254Z,28.30
2023-02-28T02:21:41.937Z,29.20
2023-02-28T02:23:11.990Z,26.70
2023-02-28T02:24:24.003Z,26.50
2023-02-28T02:25:34.186Z,27.00
2023-02-28T02:26:55.875Z,24.80
2023-02-28T02:28:36.334Z,25.20
2023-02-28T02:29:58.785Z,26.40
2023-02-28T02:31:53.113Z,25.80
2023-02-28T02:33:17.666Z,23.00
2023-02-28T02:34:35.699Z,26.10
2023-02-28T02:35:55.004Z,29.00
2023-02-28T02:37:22.539Z,27.40
2023-02-28T02:38:55.788Z,24.40
2023-02-28T02:40:01.816Z,26.70
2023-02-28T02:41:34.871Z,24.10
2023-02-28T02:42:44.838Z,25.00
2023-02-28T02:43:53.970Z,24.30
2023-02-28T02:45:02.485Z,22.30
2023-02-28T02:46:11.486Z,28.60
2023-02-28T02:47:19.755Z,22.90
2023-02-28T02:48:27.866Z,23.10
2023-02-28T02:49:34.031Z,25.50
2023-02-28T02:50:44.021Z,26.90
2023-02-28T02:51:49.191Z,23.00
2023-02-28T02:52:57.836Z,26.00
2023-02-28T02:54:16.843Z,25.90
2023-02-28T02:55:23.375Z,27.50
2023-02-28T02:56:31.736Z,24.90
2023-02-28T02:57:52.220Z,23.90
2023-02-28T02:59:01.384Z,29.80
2023-02-28T03:00:09.554Z,24.80
2023-02-28T03:01:28.686Z,27.00
2023-02-28T03:03:38.691Z,26.40
2023-02-28T03:04:47.373Z,25.70
2023-02-28T03:05:51.818Z,28.20
2023-02-28T03:06:55.831Z,31.00
2023-02-28T03:07:59.016Z,24.90
2023-02-28T03:09:02.653Z,30.10
2023-02-28T03:10:29.967Z,27.20
2023-02-28T03:11:36.233Z,25.70
2023-02-28T03:12:50.988Z,23.90
2023-02-28T03:14:00.146Z,28.40
2023-02-28T03:15:16.704Z,25.70
2023-02-28T03:16:51.002Z,22.90
2023-02-28T03:18:17.206Z,27.10
2023-02-28T03:19:41.366Z,29.70
2023-02-28T03:20:56.441Z,27.60
2023-02-28T03:22:30.101Z,29.00
2023-02-28T03:23:55.263Z,27.30
2023-02-28T03:25:10.631Z,29.60
2023-02-28T03:26:21.710Z,28.80
2023-02-28T03:27:36.025Z,25.40
2023-02-28T03:28:55.010Z,29.50
2023-02-28T03:30:27.388Z,26.50
2023-02-28T03:31:36.599Z,28.60
2023-02-28T03:33:15.295Z,26.90
2023-02-28T03:34:25.662Z,27.20
2023-02-28T03:35:42.805Z,28.40
2023-02-28T03:36:50.402Z,27.00
2023-02-28T03:38:00.203Z,29.80
2023-02-28T03:39:08.605Z,31.00
2023-02-28T03:40:21.295Z,31.50
2023-02-28T03:41:31.751Z,30.20
2023-02-28T03:42:38.202Z,27.40
2023-02-28T03:43:49.847Z,28.40
2023-02-28T03:45:02.159Z,27.70
2023-02-28T03:46:10.462Z,31.20
2023-02-28T03:47:23.705Z,28.60
2023-02-28T03:48:57.216Z,27.20
2023-02-28T03:50:12.587Z,29.00
2023-02-28T03:51:18.817Z,29.50
2023-02-28T03:52:26.514Z,29.40
2023-02-28T03:53:38.796Z,27.60
2023-02-28T03:54:46.791Z,31.40
2023-02-28T03:56:02.889Z,28.60
2023-02-28T03:57:33.931Z,33.10
2023-02-28T03:58:59.248Z,33.70
2023-02-28T04:00:08.976Z,35.40
2023-02-28T04:01:42.535Z,31.80
2023-02-28T04:02:46.429Z,32.40
2023-02-28T04:03:51.304Z,33.10
2023-02-28T04:04:54.797Z,31.90
2023-02-28T04:05:58.834Z,34.30
2023-02-28T04:07:08.782Z,34.40
2023-02-28T04:08:11.673Z,31.80
2023-02-28T04:09:15.629Z,32.00
2023-02-28T04:10:18.961Z,37.80
2023-02-28T04:11:34.978Z,32.50
2023-02-28T04:12:37.864Z,32.50
2023-02-28T04:13:40.729Z,33.70
2023-02-28T04:14:43.623Z,31.70
2023-02-28T04:15:46.475Z,31.70
2023-02-28T04:16:49.683Z,34.00
2023-02-28T04:17:52.627Z,29.20
2023-02-28T04:19:04.641Z,32.50
2023-02-28T04:20:10.706Z,33.50
2023-02-28T04:21:14.432Z,30.40
2023-02-28T04:22:18.923Z,34.70
2023-02-28T04:23:21.835Z,34.90
2023-02-28T04:24:27.325Z,32.80
2023-02-28T04:25:30.163Z,30.60
2023-02-28T04:26:35.012Z,29.20
2023-02-28T04:27:38.112Z,32.20
2023-02-28T04:28:40.996Z,33.80
2023-02-28T04:29:45.704Z,31.90
2023-02-28T04:30:49.173Z,29.80
2023-02-28T04:31:54.345Z,31.80
2023-02-28T04:32:57.491Z,30.20
2023-02-28T04:34:01.187Z,29.60
2023-02-28T04:35:04.401Z,33.20
2023-02-28T04:36:09.599Z,38.60
2023-02-28T04:37:14.236Z,34.80
2023-02-28T04:38:17.451Z,34.80
2023-02-28T04:39:20.803Z,32.90
2023-02-28T04:40:23.668Z,32.80
2023-02-28T04:41:27.301Z,35.00
2023-02-28T04:42:36.730Z,34.10
2023-02-28T04:43:40.001Z,25.10
2023-02-28T04:44:42.878Z,33.50
2023-02-28T04:45:46.136Z,32.90
2023-02-28T04:46:50.291Z,32.50
2023-02-28T04:47:54.796Z,36.00
2023-02-28T04:48:57.994Z,34.20
2023-02-28T04:50:00.833Z,35.00
2023-02-28T04:51:09.991Z,36.00
2023-02-28T04:52:14.389Z,35.20
2023-02-28T04:53:18.087Z,38.20
2023-02-28T04:54:21.055Z,34.60
2023-02-28T04:55:24.031Z,36.60
2023-02-28T04:56:26.939Z,33.30
2023-02-28T04:57:31.088Z,33.40
2023-02-28T04:58:35.032Z,37.40
2023-02-28T04:59:38.065Z,34.80
2023-02-28T05:00:41.126Z,38.40
2023-02-28T05:01:47.835Z,35.70
2023-02-28T05:02:50.754Z,39.40
2023-02-28T05:03:56.332Z,36.30
2023-02-28T05:04:59.300Z,35.40
2023-02-28T05:06:02.194Z,34.80
2023-02-28T05:07:05.299Z,34.80
2023-02-28T05:08:08.159Z,34.90
2023-02-28T05:09:13.963Z,34.40
2023-02-28T05:10:17.095Z,36.90
2023-02-28T05:11:26.540Z,35.00
2023-02-28T05:12:29.519Z,36.90
2023-02-28T05:13:32.443Z,37.50
2023-02-28T05:14:35.367Z,34.90
2023-02-28T05:15:38.303Z,35.30
2023-02-28T05:16:41.245Z,39.60
2023-02-28T05:17:44.531Z,38.70
2023-02-28T05:18:48.396Z,36.70
2023-02-28T05:19:51.692Z,38.50
2023-02-28T05:20:54.831Z,37.00
2023-02-28T05:21:57.812Z,45.30
2023-02-28T05:23:02.492Z,36.10
2023-02-28T05:24:08.940Z,37.60
2023-02-28T05:25:16.971Z,38.10
2023-02-28T05:26:20.402Z,39.30
2023-02-28T05:27:23.848Z,37.00
2023-02-28T05:28:26.793Z,38.50
2023-02-28T05:29:29.686Z,40.30
2023-02-28T05:30:32.789Z,41.00
2023-02-28T05:31:36.822Z,39.70
2023-02-28T05:32:43.882Z,37.90
2023-02-28T05:33:47.348Z,40.00
2023-02-28T05:34:50.226Z,38.30
2023-02-28T05:35:53.295Z,38.40
2023-02-28T05:36:56.141Z,38.60
2023-02-28T05:37:59.089Z,34.10
2023-02-28T05:39:02.003Z,37.80
2023-02-28T05:40:07.727Z,36.60
2023-02-28T05:41:12.063Z,31.60
2023-02-28T05:42:14.945Z,36.40
2023-02-28T05:43:17.802Z,34.40
2023-02-28T05:44:20.708Z,37.90
2023-02-28T05:45:23.562Z,42.30
2023-02-28T05:46:26.541Z,37.20
2023-02-28T05:47:29.489Z,37.70
2023-02-28T05:48:33.134Z,35.70
2023-02-28T05:49:36.005Z,34.80
2023-02-28T05:50:38.934Z,38.30
2023-02-28T05:51:41.803Z,38.80
2023-02-28T05:52:44.636Z,36.00
2023-02-28T05:53:49.287Z,38.10
2023-02-28T05:54:52.698Z,38.10
2023-02-28T05:55:55.776Z,40.20
2023-02-28T05:56:58.640Z,41.00
2023-02-28T05:58:01.745Z,35.60
2023-02-28T05:59:04.895Z,38.00
2023-02-28T06:00:08.958Z,34.50
2023-02-28T06:01:36.763Z,36.10
2023-02-28T06:02:41.522Z,34.40
2023-02-28T06:03:44.462Z,36.10
2023-02-28T06:04:47.513Z,35.50
2023-02-28T06:05:51.493Z,37.50
2023-02-28T06:06:54.794Z,37.50
2023-02-28T06:07:57.709Z,33.30
2023-02-28T06:09:01.782Z,35.90
2023-02-28T06:10:07.959Z,40.80
2023-02-28T06:11:11.658Z,37.30
2023-02-28T06:12:14.778Z,34.70
2023-02-28T06:13:17.736Z,34.60
2023-02-28T06:14:21.686Z,38.40
2023-02-28T06:15:24.736Z,35.30
2023-02-28T06:16:29.989Z,35.70
2023-02-28T06:17:33.750Z,32.20
2023-02-28T06:18:36.656Z,36.00
2023-02-28T06:19:42.876Z,32.40
2023-02-28T06:20:45.772Z,34.30
2023-02-28T06:21:53.402Z,31.90
2023-02-28T06:22:59.539Z,35.00
2023-02-28T06:24:03.234Z,34.10
2023-02-28T06:25:07.496Z,37.50
2023-02-28T06:26:10.688Z,36.70
2023-02-28T06:27:13.632Z,32.40
2023-02-28T06:28:17.383Z,35.20
2023-02-28T06:29:20.511Z,35.70
2023-02-28T06:30:27.795Z,34.20
2023-02-28T06:31:31.320Z,35.00
2023-02-28T06:32:34.569Z,36.30
2023-02-28T06:33:39.025Z,40.10
2023-02-28T06:34:42.013Z,42.70
2023-02-28T06:35:47.372Z,39.50
2023-02-28T06:36:52.566Z,47.40
2023-02-28T06:37:55.964Z,48.50
2023-02-28T06:38:58.859Z,50.80
2023-02-28T06:40:02.030Z,44.90
2023-02-28T06:41:05.997Z,46.70
2023-02-28T06:42:08.840Z,47.60
2023-02-28T06:43:14.515Z,42.00
2023-02-28T06:44:18.900Z,44.60
2023-02-28T06:45:21.832Z,43.70
2023-02-28T06:46:24.848Z,41.30
2023-02-28T06:47:27.761Z,39.90
2023-02-28T06:48:30.781Z,38.70
2023-02-28T06:49:35.710Z,39.60
2023-02-28T06:50:38.624Z,45.10
2023-02-28T06:51:46.147Z,39.40
2023-02-28T06:52:49.084Z,40.70
2023-02-28T06:53:52.448Z,43.50
2023-02-28T06:55:00.898Z,38.80
2023-02-28T06:56:13.694Z,36.10
2023-02-28T06:57:16.536Z,36.70
2023-02-28T06:58:20.169Z,36.70
2023-02-28T06:59:23.061Z,32.70
2023-02-28T07:00:26.148Z,38.00
2023-02-28T07:01:29.445Z,37.60
2023-02-28T07:02:32.855Z,32.40
2023-02-28T07:03:37.174Z,34.30
2023-02-28T07:04:41.603Z,32.20
2023-02-28T07:05:44.591Z,35.60
2023-02-28T07:06:47.440Z,30.30
2023-02-28T07:07:50.427Z,30.10
2023-02-28T07:08:54.490Z,32.90
2023-02-28T07:09:57.580Z,33.20
2023-02-28T07:11:00.761Z,34.50
2023-02-28T07:12:04.369Z,23.70
2023-02-28T07:13:08.922Z,30.90
2023-02-28T07:14:11.823Z,30.80
2023-02-28T07:15:14.761Z,31.20
2023-02-28T07:16:17.702Z,27.00
2023-02-28T07:17:20.611Z,25.60
2023-02-28T07:18:23.674Z,27.40
2023-02-28T07:19:26.543Z,25.00
2023-02-28T07:20:29.914Z,27.50
2023-02-28T07:21:32.803Z,22.70
2023-02-28T07:22:35.725Z,26.00
2023-02-28T07:23:40.151Z,26.40
2023-02-28T07:24:43.022Z,27.90
2023-02-28T07:25:46.726Z,24.40
2023-02-28T07:26:49.622Z,21.80
2023-02-28T07:27:52.510Z,23.70
2023-02-28T07:28:55.358Z,27.40
2023-02-28T07:29:58.403Z,23.70
2023-02-28T07:31:08.543Z,22.70
2023-02-28T07:33:15.039Z,22.40
2023-02-28T07:34:17.927Z,25.20
2023-02-28T07:35:20.941Z,27.20
2023-02-28T07:36:23.797Z,27.40
2023-02-28T07:37:26.657Z,26.90
2023-02-28T07:38:29.626Z,23.10
2023-02-28T07:39:32.605Z,23.50
2023-02-28T07:40:37.030Z,24.60
2023-02-28T07:41:44.518Z,26.30
2023-02-28T07:44:41.361Z,20.30
2023-02-28T07:45:48.423Z,23.40
2023-02-28T07:47:12.941Z,20.90
2023-02-28T07:50:16.746Z,29.50
2023-02-28T07:53:21.577Z,21.20
2023-02-28T07:56:05.275Z,19.50
2023-02-28T07:58:30.695Z,23.60
2023-02-28T08:01:37.570Z,18.80
2023-02-28T08:04:25.457Z,16.30
2023-02-28T08:07:31.817Z,9.60
2023-02-28T08:10:36.388Z,10.70
2023-02-28T08:13:40.521Z,11.90
2023-02-28T08:16:46.487Z,12.20
2023-02-28T08:19:40.155Z,14.00
2023-02-28T08:22:48.651Z,14.00
2023-02-28T08:25:56.315Z,11.20
2023-02-28T08:28:40.906Z,12.80
2023-02-28T08:30:35.226Z,12.70
2023-02-28T08:31:38.197Z,16.30
2023-02-28T08:32:41.838Z,14.40
2023-02-28T08:33:45.834Z,16.20
2023-02-28T08:34:48.909Z,12.10
2023-02-28T08:35:56.192Z,13.00
2023-02-28T08:36:59.172Z,12.80
2023-02-28T08:38:01.998Z,10.00
2023-02-28T08:39:05.057Z,12.40
2023-02-28T08:40:08.763Z,10.80
2023-02-28T08:41:13.835Z,10.30
2023-02-28T08:42:16.724Z,11.50
2023-02-28T08:43:19.603Z,10.40
2023-02-28T08:44:22.461Z,10.10
2023-02-28T08:45:25.354Z,8.50
2023-02-28T08:46:28.204Z,13.50
2023-02-28T08:47:31.647Z,11.90
2023-02-28T08:48:38.870Z,10.30
2023-02-28T08:49:41.887Z,10.50
2023-02-28T08:50:46.567Z,10.70
2023-02-28T08:51:53.533Z,10.70
2023-02-28T08:52:56.399Z,12.10
2023-02-28T08:54:01.244Z,11.10
2023-02-28T08:55:04.246Z,11.90
2023-02-28T08:56:17.126Z,8.20
2023-02-28T08:57:19.981Z,11.60
2023-02-28T08:58:22.856Z,10.20
2023-02-28T08:59:25.813Z,9.50
2023-02-28T09:00:28.712Z,10.40
2023-02-28T09:01:32.790Z,13.10
2023-02-28T09:02:36.003Z,11.60
2023-02-28T09:03:39.725Z,9.30
2023-02-28T09:04:42.709Z,10.30
2023-02-28T09:06:03.838Z,9.20
2023-02-28T09:07:07.085Z,11.20
2023-02-28T09:08:09.955Z,15.20
2023-02-28T09:09:12.890Z,11.70
2023-02-28T09:10:18.775Z,12.50
2023-02-28T09:11:21.711Z,11.30
2023-02-28T09:12:26.719Z,10.10
2023-02-28T09:13:30.836Z,12.50
2023-02-28T09:14:33.732Z,8.30
2023-02-28T09:15:38.797Z,9.40
2023-02-28T09:16:41.683Z,9.10
2023-02-28T09:17:46.870Z,10.40
2023-02-28T09:18:51.254Z,11.30
2023-02-28T09:19:54.152Z,8.70
2023-02-28T09:20:57.303Z,9.90
2023-02-28T09:22:00.140Z,10.20
2023-02-28T09:23:02.986Z,12.90
2023-02-28T09:24:06.221Z,10.00
2023-02-28T09:25:09.108Z,14.20
2023-02-28T09:26:17.301Z,14.20
2023-02-28T09:27:20.156Z,13.00
2023-02-28T09:28:23.783Z,9.10
2023-02-28T09:29:26.693Z,9.90
2023-02-28T09:30:30.251Z,10.60
2023-02-28T09:31:33.307Z,11.80
2023-02-28T09:32:36.119Z,11.30
2023-02-28T09:33:38.955Z,10.40
2023-02-28T09:34:41.966Z,12.90
2023-02-28T09:35:44.912Z,11.90
2023-02-28T09:36:48.652Z,10.90
2023-02-28T09:37:53.485Z,10.60
2023-02-28T09:38:56.594Z,14.60
2023-02-28T09:39:59.559Z,12.60
2023-02-28T09:41:05.074Z,11.40
2023-02-28T09:42:22.429Z,10.80
2023-02-28T09:43:30.190Z,12.20
2023-02-28T09:44:38.537Z,13.60
2023-02-28T09:45:44.997Z,14.70
2023-02-28T09:46:53.672Z,13.80
2023-02-28T09:48:05.331Z,14.20
2023-02-28T09:49:14.033Z,11.80
2023-02-28T09:50:36.483Z,13.80
2023-02-28T09:51:54.331Z,12.00
2023-02-28T09:52:57.810Z,12.50
2023-02-28T09:54:02.250Z,14.40
2023-02-28T09:55:20.924Z,24.80
2023-02-28T09:56:29.164Z,15.50
2023-02-28T09:57:42.540Z,11.40
2023-02-28T09:58:45.368Z,15.40
2023-02-28T10:00:02.151Z,20.80
2023-02-28T10:01:42.023Z,10.60
2023-02-28T10:03:04.029Z,11.80
2023-02-28T10:04:26.221Z,13.40
2023-02-28T10:05:34.265Z,8.80
2023-02-28T10:06:45.637Z,10.00
2023-02-28T10:08:14.989Z,11.40
2023-02-28T10:09:24.683Z,12.80
2023-02-28T10:11:45.133Z,11.30
2023-02-28T10:12:48.932Z,10.00
2023-02-28T10:14:03.465Z,12.20
2023-02-28T10:15:07.092Z,16.30
2023-02-28T10:16:18.413Z,14.10
2023-02-28T10:17:26.705Z,13.10
2023-02-28T10:18:39.455Z,13.40
2023-02-28T10:19:51.710Z,9.90
2023-02-28T10:20:56.945Z,10.80
2023-02-28T10:22:28.179Z,21.70
2023-02-28T10:23:36.722Z,15.60
2023-02-28T10:24:54.465Z,12.70
2023-02-28T10:26:04.710Z,11.80
2023-02-28T10:27:15.069Z,12.60
2023-02-28T10:28:19.224Z,12.70
2023-02-28T10:29:22.201Z,14.00
2023-02-28T10:30:25.154Z,10.90
2023-02-28T10:31:28.172Z,9.80
2023-02-28T10:32:37.107Z,11.50
2023-02-28T10:33:40.669Z,11.80
2023-02-28T10:34:43.541Z,12.90
2023-02-28T10:35:46.513Z,13.60
2023-02-28T10:36:51.449Z,13.60
2023-02-28T10:37:59.746Z,12.50
2023-02-28T10:39:02.608Z,10.80
2023-02-28T10:40:07.605Z,11.20
2023-02-28T10:41:16.135Z,10.20
2023-02-28T10:42:26.544Z,10.20
2023-02-28T10:43:29.512Z,11.20
2023-02-28T10:44:32.457Z,13.00
2023-02-28T10:45:39.917Z,8.80
2023-02-28T10:46:43.841Z,9.50
2023-02-28T10:47:57.107Z,8.70
2023-02-28T10:49:07.870Z,10.50
2023-02-28T10:50:52.333Z,13.00
2023-02-28T10:51:58.567Z,9.60
2023-02-28T10:53:25.852Z,9.60
2023-02-28T10:54:29.261Z,10.50
2023-02-28T10:55:32.791Z,13.30
2023-02-28T10:56:36.064Z,14.60
2023-02-28T10:57:39.150Z,13.90
2023-02-28T10:58:57.064Z,12.30
2023-02-28T11:00:34.514Z,10.30
2023-02-28T11:01:50.034Z,12.90
2023-02-28T11:02:52.988Z,12.70
2023-02-28T11:03:56.861Z,10.40
2023-02-28T11:04:59.843Z,9.10
2023-02-28T11:06:14.165Z,13.70
2023-02-28T11:07:24.350Z,10.00
2023-02-28T11:08:27.901Z,11.70
2023-02-28T11:09:40.121Z,9.80
2023-02-28T11:10:56.062Z,10.30
2023-02-28T11:11:59.437Z,10.10
2023-02-28T11:13:03.888Z,10.70
2023-02-28T11:14:16.098Z,11.90
2023-02-28T11:15:30.919Z,11.20
2023-02-28T11:16:37.802Z,9.10
2023-02-28T11:17:41.880Z,9.40
2023-02-28T11:18:53.319Z,11.40
2023-02-28T11:20:02.542Z,10.30
2023-02-28T11:21:05.663Z,11.10
2023-02-28T11:22:08.534Z,9.70
2023-02-28T11:23:15.391Z,9.20
2023-02-28T11:24:27.521Z,9.20
2023-02-28T11:25:34.693Z,11.10
2023-02-28T11:26:41.887Z,16.40
2023-02-28T11:27:48.548Z,9.10
2023-02-28T11:29:09.712Z,19.90
2023-02-28T11:30:43.142Z,9.30
2023-02-28T11:32:13.776Z,10.50
2023-02-28T11:33:33.577Z,10.60
2023-02-28T11:35:41.601Z,13.10
2023-02-28T11:36:45.676Z,9.80
2023-02-28T11:37:48.610Z,9.70
2023-02-28T11:38:53.241Z,10.00
2023-02-28T11:39:56.764Z,10.90
2023-02-28T11:41:24.699Z,10.40
2023-02-28T11:42:51.661Z,10.90
2023-02-28T11:44:06.734Z,11.90
2023-02-28T11:45:37.247Z,9.60
2023-02-28T11:46:58.201Z,14.80
2023-02-28T11:48:33.071Z,14.60
2023-02-28T11:50:03.112Z,9.30
2023-02-28T11:51:22.841Z,11.70
2023-02-28T11:53:56.630Z,8.60
2023-02-28T11:55:22.239Z,10.20
2023-02-28T11:56:33.633Z,11.10
2023-02-28T11:57:45.684Z,9.90
2023-02-28T11:59:06.631Z,10.80
2023-02-28T12:00:38.928Z,12.00
2023-02-28T12:02:22.266Z,12.40
2023-02-28T12:03:46.647Z,10.10
2023-02-28T12:05:14.478Z,18.40
2023-02-28T12:06:27.911Z,9.00
2023-02-28T12:07:48.573Z,10.50
2023-02-28T12:09:04.227Z,10.50
2023-02-28T12:10:24.860Z,12.60
2023-02-28T12:11:35.372Z,12.60
2023-02-28T12:12:49.106Z,14.10
2023-02-28T12:14:19.419Z,10.90
2023-02-28T12:15:33.870Z,11.90
2023-02-28T12:16:46.886Z,12.10
2023-02-28T12:18:00.830Z,13.20
2023-02-28T12:19:18.666Z,13.80
2023-02-28T12:20:34.594Z,15.30
2023-02-28T12:21:58.702Z,13.80
2023-02-28T12:23:16.764Z,12.20
2023-02-28T12:24:57.283Z,12.20
2023-02-28T12:26:12.147Z,13.30
2023-02-28T12:27:19.691Z,12.40
2023-02-28T12:28:32.300Z,10.10
2023-02-28T12:29:46.981Z,12.80
2023-02-28T12:31:02.272Z,12.30
2023-02-28T12:32:14.536Z,10.80
2023-02-28T12:33:24.763Z,13.00
2023-02-28T12:34:32.978Z,10.70
2023-02-28T12:35:50.963Z,12.60
2023-02-28T12:36:57.163Z,10.70
2023-02-28T12:38:23.673Z,11.00
2023-02-28T12:39:41.644Z,11.30
2023-02-28T12:41:08.082Z,11.40
2023-02-28T12:42:33.473Z,13.10
2023-02-28T12:43:44.174Z,10.70
2023-02-28T12:44:55.494Z,13.30
2023-02-28T12:46:05.453Z,12.20
2023-02-28T12:47:15.602Z,12.80
2023-02-28T12:48:28.642Z,31.10
2023-02-28T12:49:55.392Z,12.20
2023-02-28T12:51:01.729Z,11.60
2023-02-28T12:52:06.715Z,10.30
2023-02-28T12:53:30.058Z,9.40
2023-02-28T12:54:56.262Z,9.20
2023-02-28T12:56:29.347Z,10.80
2023-02-28T12:57:59.270Z,9.00
2023-02-28T12:59:12.009Z,11.40
2023-02-28T13:00:19.990Z,10.60
2023-02-28T13:01:44.808Z,10.60
2023-02-28T13:03:03.934Z,12.80
2023-02-28T13:04:28.228Z,9.90
2023-02-28T13:05:57.493Z,11.60
2023-02-28T13:07:05.964Z,9.70
2023-02-28T13:08:11.785Z,11.60
2023-02-28T13:09:16.901Z,18.10
2023-02-28T13:10:20.173Z,9.40
2023-02-28T13:11:44.302Z,8.50
2023-02-28T13:12:55.157Z,9.80
2023-02-28T13:14:00.111Z,8.90
2023-02-28T13:15:17.793Z,11.40
2023-02-28T13:16:20.816Z,12.20
2023-02-28T13:17:27.100Z,11.00
2023-02-28T13:18:34.849Z,9.60
2023-02-28T13:19:45.821Z,11.50
2023-02-28T13:20:50.702Z,10.40
2023-02-28T13:21:54.741Z,8.30
2023-02-28T13:22:58.836Z,12.00
2023-02-28T13:24:05.935Z,11.30
2023-02-28T13:25:34.669Z,11.00
2023-02-28T13:26:37.674Z,10.60
2023-02-28T13:27:42.856Z,10.90
2023-02-28T13:29:02.193Z,14.60
2023-02-28T13:30:43.652Z,13.20
2023-02-28T13:32:07.959Z,9.60
2023-02-28T13:33:45.339Z,11.50
2023-02-28T13:35:08.121Z,11.60
2023-02-28T13:36:20.360Z,11.70
2023-02-28T13:37:23.215Z,15.10
2023-02-28T13:38:35.820Z,11.50
2023-02-28T13:39:39.240Z,13.70
2023-02-28T13:40:42.095Z,11.50
2023-02-28T13:41:46.341Z,16.70
2023-02-28T13:42:51.493Z,12.30
2023-02-28T13:44:14.110Z,14.40
2023-02-28T13:46:03.322Z,14.10
2023-02-28T13:47:06.164Z,12.40
2023-02-28T13:48:28.534Z,14.80
2023-02-28T13:49:37.738Z,14.00
2023-02-28T13:50:42.510Z,15.00
2023-02-28T13:51:49.857Z,11.80
2023-02-28T13:53:17.659Z,11.00
2023-02-28T13:54:56.985Z,11.20
2023-02-28T13:56:02.905Z,21.90
2023-02-28T13:58:00.535Z,12.00
2023-02-28T13:59:27.452Z,12.90
2023-02-28T14:00:33.258Z,12.50
2023-02-28T14:01:55.738Z,13.00
2023-02-28T14:03:13.846Z,15.90
2023-02-28T14:04:47.451Z,15.00
2023-02-28T14:06:18.509Z,14.40
2023-02-28T14:07:26.565Z,15.90
2023-02-28T14:08:29.856Z,11.00
2023-02-28T14:09:40.343Z,11.80
2023-02-28T14:10:46.917Z,14.20
2023-02-28T14:11:50.148Z,23.10
2023-02-28T14:12:59.018Z,17.00
2023-02-28T14:14:03.635Z,15.50
2023-02-28T14:15:28.303Z,13.00
2023-02-28T14:16:45.015Z,15.50
2023-02-28T14:17:55.560Z,12.70
2023-02-28T14:19:32.068Z,19.30
2023-02-28T14:20:35.261Z,17.50
2023-02-28T14:21:48.573Z,14.30
2023-02-28T14:23:03.398Z,15.80
2023-02-28T14:24:24.441Z,14.50
2023-02-28T14:25:41.406Z,15.10
2023-02-28T14:27:21.356Z,15.70
2023-02-28T14:28:48.331Z,13.80
2023-02-28T14:29:51.143Z,12.60
2023-02-28T14:31:05.369Z,13.50
2023-02-28T14:32:36.259Z,13.70
2023-02-28T14:34:06.158Z,12.20
2023-02-28T14:35:27.066Z,14.80
2023-02-28T14:36:43.328Z,15.10
2023-02-28T14:37:47.277Z,13.60
2023-02-28T14:38:54.691Z,13.20
2023-02-28T14:40:00.193Z,14.00
2023-02-28T14:41:13.635Z,12.70
2023-02-28T14:42:36.392Z,13.70
2023-02-28T14:43:50.255Z,14.50
2023-02-28T14:44:59.038Z,12.20
2023-02-28T14:46:04.767Z,13.40
2023-02-28T14:47:16.747Z,14.00
2023-02-28T14:48:20.930Z,11.00
2023-02-28T14:49:32.286Z,12.60
2023-02-28T14:50:37.498Z,16.10
2023-02-28T14:51:40.964Z,13.40
2023-02-28T14:52:44.350Z,14.20
2023-02-28T14:53:50.665Z,12.00
2023-02-28T14:54:55.678Z,22.20
2023-02-28T14:55:58.590Z,16.00
2023-02-28T14:57:01.564Z,13.70
2023-02-28T14:58:23.330Z,14.90
2023-02-28T14:59:31.843Z,16.70
2023-02-28T15:00:38.561Z,12.60
2023-02-28T15:01:41.428Z,23.60
2023-02-28T15:02:44.684Z,19.30
2023-02-28T15:03:48.314Z,13.80
2023-02-28T15:05:19.150Z,16.50
2023-02-28T15:06:24.052Z,15.40
2023-02-28T15:07:31.308Z,14.10
2023-02-28T15:08:37.292Z,15.30
2023-02-28T15:09:40.487Z,14.30
2023-02-28T15:10:54.175Z,16.70
2023-02-28T15:11:57.178Z,22.00
2023-02-28T15:13:07.377Z,13.10
2023-02-28T15:14:17.840Z,10.70
2023-02-28T15:15:28.173Z,13.80
2023-02-28T15:16:42.799Z,18.90
2023-02-28T15:17:50.511Z,14.30
2023-02-28T15:19:03.452Z,18.70
2023-02-28T15:20:06.938Z,32.20
2023-02-28T15:21:18.534Z,22.10
2023-02-28T15:22:30.622Z,16.80
2023-02-28T15:23:37.357Z,16.70
2023-02-28T15:24:45.758Z,17.10
2023-02-28T15:25:51.020Z,18.60
2023-02-28T15:27:04.588Z,19.40
2023-02-28T15:28:16.905Z,18.90